Time;durP1;ratioP1;P1;durP2;ratioP2;P2;SDS_P1;SDS_P2;PMS_P1;PMS_P2;Temp;Humidity;BMP_temperature;BMP_pressure;BME280_temperature;BME280_humidity;BME280_pressure;Samples;Min_cycle;Max_cycle;Signal;HPM_P1;HPM_P2
2024/01/10 00:01:44;;;;;;;54.47;31.73;;;-6.70;99.90;;;;;;6137270;23;20200;-85
2024/01/10 00:04:13;;;;;;;56.47;29.60;;;-6.80;99.90;;;;;;6137356;23;20220;-84
2024/01/10 00:06:39;;;;;;;52.92;30.20;;;-6.80;99.90;;;;;;6136418;23;20224;-85
2024/01/10 00:09:07;;;;;;;58.40;30.15;;;-6.80;99.90;;;;;;6136800;23;20277;-85
2024/01/10 00:11:33;;;;;;;64.15;32.63;;;-6.80;99.90;;;;;;6140972;23;20181;-84
2024/01/10 00:14:03;;;;;;;59.78;30.15;;;-6.80;99.90;;;;;;6152915;23;20174;-82
2024/01/10 00:16:30;;;;;;;59.35;31.23;;;-6.80;99.90;;;;;;6145122;23;20623;-84
2024/01/10 00:18:56;;;;;;;60.72;31.75;;;-6.80;99.90;;;;;;6139228;23;20200;-83
2024/01/10 00:21:24;;;;;;;69.30;32.53;;;-6.80;99.90;;;;;;6137490;23;20263;-84
2024/01/10 00:23:51;;;;;;;50.83;29.02;;;-6.80;99.90;;;;;;6136190;23;20310;-84
2024/01/10 00:26:18;;;;;;;66.45;31.75;;;-6.90;99.90;;;;;;6136351;23;20188;-84
2024/01/10 00:28:45;;;;;;;61.10;32.35;;;-6.90;99.90;;;;;;6135454;23;20224;-84
2024/01/10 00:31:12;;;;;;;61.97;30.90;;;-6.90;99.90;;;;;;6136273;23;20185;-84
2024/01/10 00:33:39;;;;;;;69.97;35.35;;;-6.80;99.90;;;;;;6136567;23;20188;-85
2024/01/10 00:36:07;;;;;;;63.47;32.22;;;-6.80;99.90;;;;;;6135285;23;20220;-85
2024/01/10 00:38:35;;;;;;;64.85;33.22;;;-6.70;99.90;;;;;;6135470;23;20283;-84
2024/01/10 00:41:02;;;;;;;64.88;33.08;;;-6.80;99.90;;;;;;6135543;23;20268;-84
2024/01/10 00:43:29;;;;;;;60.30;30.50;;;-6.80;99.90;;;;;;6134851;23;20181;-83
2024/01/10 00:45:56;;;;;;;63.97;32.00;;;-6.70;99.90;;;;;;6135653;23;20264;-84
2024/01/10 00:48:23;;;;;;;59.10;32.90;;;-6.70;83.90;;;;;;6146080;23;20205;-82
2024/01/10 00:50:50;;;;;;;65.07;33.63;;;-6.70;99.90;;;;;;6148270;23;20177;-83
2024/01/10 00:53:17;;;;;;;54.72;31.80;;;-6.70;77.80;;;;;;6136657;23;20205;-83
2024/01/10 00:55:45;;;;;;;61.22;33.08;;;-6.70;70.50;;;;;;6146071;23;20204;-83
2024/01/10 00:58:12;;;;;;;61.00;33.28;;;-6.70;30.00;;;;;;6137031;23;20569;-83
2024/01/10 01:00:39;;;;;;;67.57;35.35;;;-6.80;20.30;;;;;;6144379;23;20181;-83
2024/01/10 01:03:07;;;;;;;55.60;32.63;;;-6.90;52.90;;;;;;6152136;23;20181;-83
2024/01/10 01:05:34;;;;;;;65.65;33.47;;;-6.90;99.90;;;;;;6150268;23;20181;-83
2024/01/10 01:08:00;;;;;;;64.25;32.25;;;-6.90;99.90;;;;;;6150521;23;20221;-83
2024/01/10 01:10:27;;;;;;;67.15;33.70;;;-6.90;99.90;;;;;;6149997;23;20188;-83
2024/01/10 01:12:56;;;;;;;59.58;32.00;;;-7.00;99.90;;;;;;6149480;23;20215;-83
2024/01/10 01:15:22;;;;;;;66.03;33.70;;;-7.10;99.90;;;;;;6144383;23;20204;-84
2024/01/10 01:17:49;;;;;;;57.85;33.72;;;-7.00;99.90;;;;;;6147143;23;20184;-82
2024/01/10 01:20:16;;;;;;;67.35;36.25;;;-7.00;99.90;;;;;;6151051;23;20188;-83
2024/01/10 01:22:43;;;;;;;62.03;33.88;;;-7.10;99.90;;;;;;6149832;23;20188;-83
2024/01/10 01:25:10;;;;;;;64.72;34.25;;;-7.10;99.90;;;;;;6152656;23;20170;-84
2024/01/10 01:27:37;;;;;;;59.97;32.65;;;-7.10;99.90;;;;;;6152409;23;20201;-83
2024/01/10 01:30:07;;;;;;;61.08;33.47;;;-7.10;99.90;;;;;;6153237;23;20201;-83
2024/01/10 01:32:33;;;;;;;61.88;33.13;;;-7.10;99.90;;;;;;6152560;23;20173;-84
2024/01/10 01:35:00;;;;;;;64.03;33.47;;;-7.20;99.90;;;;;;6149540;23;20209;-84
2024/01/10 01:37:27;;;;;;;64.72;32.60;;;-7.20;99.90;;;;;;6154189;23;20193;-84
2024/01/10 01:39:54;;;;;;;70.78;33.10;;;-7.20;99.90;;;;;;6152679;23;20201;-85
2024/01/10 01:42:21;;;;;;;73.35;36.25;;;-7.20;99.90;;;;;;6153079;23;20503;-86
2024/01/10 01:44:48;;;;;;;69.68;33.55;;;-7.10;99.90;;;;;;6142062;23;20639;-86
2024/01/10 01:49:46;;;;;;;69.93;33.38;;;-7.10;99.90;;;;;;6202785;23;20176;-87
2024/01/10 01:52:13;;;;;;;60.70;34.90;;;-7.00;99.90;;;;;;6204538;23;20180;-87
2024/01/10 01:54:40;;;;;;;62.40;31.08;;;-7.00;99.90;;;;;;6196792;23;20262;-88
2024/01/10 01:57:07;;;;;;;62.00;33.03;;;-6.90;99.90;;;;;;6209178;23;20202;-86
2024/01/10 01:59:34;;;;;;;55.30;31.90;;;-7.00;99.90;;;;;;6214118;23;20171;-87
2024/01/10 02:02:03;;;;;;;68.80;31.88;;;-7.00;99.90;;;;;;6213067;23;20172;-87
2024/01/10 02:04:32;;;;;;;69.93;35.72;;;-7.10;99.90;;;;;;6204629;23;20180;-87
2024/01/10 02:07:00;;;;;;;59.85;34.30;;;-7.10;99.90;;;;;;6211898;23;20152;-88
2024/01/10 02:09:27;;;;;;;66.32;33.53;;;-7.20;99.90;;;;;;6201866;23;20242;-88
2024/01/10 02:11:54;;;;;;;56.75;29.77;;;-7.20;99.90;;;;;;6201558;23;20231;-88
2024/01/10 02:14:22;;;;;;;68.05;31.10;;;-7.10;99.90;;;;;;6212147;23;20176;-88
2024/01/10 02:16:49;;;;;;;67.70;31.35;;;-7.00;99.90;;;;;;6213585;23;20162;-89
2024/01/10 02:19:20;;;;;;;71.07;34.10;;;-7.00;99.90;;;;;;6213674;23;20206;-88
2024/01/10 02:21:47;;;;;;;59.83;31.50;;;-7.10;99.90;;;;;;6214238;23;20228;-87
2024/01/10 02:24:15;;;;;;;76.88;34.28;;;-7.10;99.90;;;;;;6214071;23;20160;-86
2024/01/10 02:26:44;;;;;;;62.67;32.55;;;-7.20;99.90;;;;;;6214140;23;20223;-86
2024/01/10 02:29:11;;;;;;;56.45;32.03;;;-7.30;99.90;;;;;;6213740;23;20195;-88
2024/01/10 02:31:38;;;;;;;64.20;34.42;;;-7.40;99.90;;;;;;6213950;23;20171;-87
2024/01/10 02:34:05;;;;;;;59.55;29.73;;;-7.40;99.90;;;;;;6213856;23;20168;-87
2024/01/10 02:36:32;;;;;;;64.13;32.03;;;-7.30;99.90;;;;;;6213873;23;20190;-87
2024/01/10 02:38:59;;;;;;;71.45;33.83;;;-7.20;99.90;;;;;;6213654;23;20191;-88
2024/01/10 02:41:27;;;;;;;59.85;33.30;;;-7.20;99.90;;;;;;6213345;23;20156;-87
2024/01/10 02:43:59;;;;;;;66.07;31.63;;;-7.10;99.90;;;;;;6213503;23;20140;-88
2024/01/10 02:46:27;;;;;;;65.13;35.47;;;-7.10;99.90;;;;;;6212326;23;20152;-88
2024/01/10 02:48:55;;;;;;;71.78;35.40;;;-7.20;99.90;;;;;;6191274;23;20203;-88
2024/01/10 02:51:23;;;;;;;60.92;32.90;;;-7.10;99.90;;;;;;6192897;23;20186;-88
2024/01/10 02:53:50;;;;;;;62.45;33.38;;;-7.10;99.90;;;;;;6197978;23;20180;-89
2024/01/10 02:56:17;;;;;;;62.75;33.08;;;-7.20;99.90;;;;;;6194689;23;20186;-88
2024/01/10 02:58:43;;;;;;;63.15;32.33;;;-7.20;99.90;;;;;;6195798;23;20203;-88
2024/01/10 03:01:12;;;;;;;67.80;33.90;;;-7.20;99.90;;;;;;6195858;23;20196;-87
2024/01/10 03:03:38;;;;;;;59.45;32.03;;;-7.20;99.90;;;;;;6192370;23;20186;-88
2024/01/10 03:06:06;;;;;;;69.32;36.42;;;-7.10;99.90;;;;;;6192341;23;20204;-88
2024/01/10 03:08:32;;;;;;;60.55;29.75;;;-7.20;84.80;;;;;;6193389;23;20199;-88
2024/01/10 03:10:59;;;;;;;59.80;33.38;;;-7.10;99.90;;;;;;6197109;23;20179;-88
2024/01/10 03:13:26;;;;;;;66.72;32.85;;;-7.10;99.90;;;;;;6199319;23;20187;-88
2024/01/10 03:15:53;;;;;;;70.82;32.92;;;-7.00;52.20;;;;;;6192852;23;20186;-88
2024/01/10 03:18:22;;;;;;;72.03;34.05;;;-7.00;26.00;;;;;;6191128;23;20588;-88
2024/01/10 03:20:48;;;;;;;64.22;32.20;;;-7.00;21.90;;;;;;6191411;23;20190;-89
2024/01/10 03:23:15;;;;;;;61.40;35.72;;;-7.00;1.00;;;;;;6190988;23;20199;-87
2024/01/10 03:25:42;;;;;;;64.28;34.85;;;-7.10;1.00;;;;;;6194690;23;20522;-88
2024/01/10 03:28:09;;;;;;;74.82;35.03;;;-7.10;23.00;;;;;;6209515;23;20214;-87
2024/01/10 03:30:36;;;;;;;59.78;31.80;;;-7.10;5.40;;;;;;6191222;23;20187;-87
2024/01/10 03:33:03;;;;;;;61.13;32.67;;;-7.00;35.00;;;;;;6191053;23;20227;-88
2024/01/10 03:35:31;;;;;;;69.53;33.55;;;-7.00;1.00;;;;;;6189945;23;20172;-87
2024/01/10 03:37:58;;;;;;;70.20;34.63;;;-7.00;1.00;;;;;;6191604;23;20262;-87
2024/01/10 03:40:25;;;;;;;60.45;34.08;;;-7.10;1.00;;;;;;6191238;23;20653;-88
2024/01/10 03:42:51;;;;;;;61.13;34.17;;;-7.10;1.00;;;;;;6191395;23;20251;-87
2024/01/10 03:45:20;;;;;;;69.45;34.97;;;-7.10;1.00;;;;;;6191822;23;20242;-87
2024/01/10 03:47:49;;;;;;;77.13;33.92;;;-7.20;5.50;;;;;;6191984;23;20200;-87
2024/01/10 03:50:17;;;;;;;76.43;32.65;;;-7.20;16.40;;;;;;6191292;23;20255;-87
2024/01/10 03:52:45;;;;;;;68.80;35.95;;;-7.20;18.80;;;;;;6191391;23;20198;-88
2024/01/10 03:55:15;;;;;;;65.15;32.97;;;-7.20;12.00;;;;;;6198553;23;20681;-88
2024/01/10 03:57:42;;;;;;;59.35;34.33;;;-7.20;1.00;;;;;;6210760;23;20198;-88
2024/01/10 04:00:10;;;;;;;73.38;37.17;;;-7.20;1.00;;;;;;6211606;23;20227;-88
2024/01/10 04:02:38;;;;;;;64.70;31.35;;;-7.20;1.00;;;;;;6212064;23;20164;-87
2024/01/10 04:05:08;;;;;;;60.85;32.72;;;-7.10;1.00;;;;;;6214462;23;20176;-88
2024/01/10 04:07:35;;;;;;;73.03;34.42;;;-7.10;1.00;;;;;;6213044;23;20269;-88
2024/01/10 04:10:04;;;;;;;62.90;32.67;;;-7.10;1.00;;;;;;6203561;23;20176;-88
2024/01/10 04:12:31;;;;;;;68.38;34.17;;;-7.10;1.00;;;;;;6195695;23;20203;-88
2024/01/10 04:14:58;;;;;;;62.40;32.65;;;-7.10;1.00;;;;;;6195512;23;20228;-88
2024/01/10 04:17:25;;;;;;;55.25;31.85;;;-7.10;1.00;;;;;;6214581;23;20192;-87
2024/01/10 04:19:52;;;;;;;63.15;30.80;;;-7.10;1.00;;;;;;6196635;23;20168;-88
2024/01/10 04:22:19;;;;;;;59.38;31.73;;;-7.00;1.00;;;;;;6192234;23;20211;-88
2024/01/10 04:24:46;;;;;;;62.28;31.15;;;-7.20;1.00;;;;;;6192080;23;20186;-87
2024/01/10 04:27:14;;;;;;;50.88;27.90;;;-7.20;1.00;;;;;;6193894;23;20207;-88
2024/01/10 04:29:41;;;;;;;69.47;33.55;;;-7.20;1.00;;;;;;6194085;23;20192;-88
2024/01/10 04:32:08;;;;;;;63.45;31.23;;;-7.10;1.00;;;;;;6193501;23;20661;-87
2024/01/10 04:34:35;;;;;;;64.80;33.70;;;-7.10;1.00;;;;;;6193261;23;20176;-88
2024/01/10 04:37:02;;;;;;;59.60;31.73;;;-7.10;1.00;;;;;;6192491;23;20180;-87
2024/01/10 04:39:29;;;;;;;62.20;34.00;;;-7.10;1.00;;;;;;6192492;23;20180;-88
2024/01/10 04:41:56;;;;;;;59.90;30.17;;;-7.20;1.00;;;;;;6198011;23;20164;-88
2024/01/10 04:44:24;;;;;;;63.60;32.33;;;-7.30;1.00;;;;;;6214066;23;20167;-87
2024/01/10 04:46:51;;;;;;;62.03;35.10;;;-7.30;1.00;;;;;;6212829;23;20180;-88
2024/01/10 04:49:18;;;;;;;67.97;34.10;;;-7.30;1.00;;;;;;6202957;23;20234;-88
2024/01/10 04:51:45;;;;;;;60.83;34.17;;;-7.30;24.30;;;;;;6210592;23;20183;-88
2024/01/10 04:54:12;;;;;;;63.40;32.70;;;-7.20;1.00;;;;;;6201408;23;20199;-88
2024/01/10 04:56:39;;;;;;;65.38;31.88;;;-7.20;1.00;;;;;;6196004;23;20175;-88
2024/01/10 04:59:06;;;;;;;63.92;37.00;;;-7.20;1.00;;;;;;6204577;23;20195;-87
2024/01/10 05:01:36;;;;;;;71.57;35.10;;;-7.20;1.00;;;;;;6209782;23;20265;-88
2024/01/10 05:04:03;;;;;;;67.00;33.00;;;-7.10;1.00;;;;;;6212739;23;20160;-87
2024/01/10 05:06:30;;;;;;;70.82;33.88;;;-7.10;1.00;;;;;;6213873;23;20623;-87
2024/01/10 05:08:58;;;;;;;71.68;34.50;;;-7.20;1.00;;;;;;6213881;23;20192;-86
2024/01/10 05:11:25;;;;;;;75.88;33.80;;;-7.20;1.00;;;;;;6214572;23;20212;-87
2024/01/10 05:13:52;;;;;;;57.33;34.03;;;-7.30;1.00;;;;;;6214339;23;20186;-88
2024/01/10 05:16:19;;;;;;;63.47;34.17;;;-7.30;1.00;;;;;;6205563;23;20180;-88
2024/01/10 05:18:47;;;;;;;65.30;30.48;;;-7.30;1.00;;;;;;6194213;23;20309;-88
2024/01/10 05:21:14;;;;;;;66.70;33.55;;;-7.30;1.00;;;;;;6194658;23;20172;-88
2024/01/10 05:23:41;;;;;;;64.43;31.17;;;-7.20;1.00;;;;;;6193279;23;20184;-88
2024/01/10 05:26:08;;;;;;;57.50;33.35;;;-7.20;1.00;;;;;;6193432;23;20215;-88
2024/01/10 05:28:35;;;;;;;64.80;33.42;;;-7.30;1.00;;;;;;6193472;23;20195;-88
2024/01/10 05:31:02;;;;;;;59.22;34.88;;;-7.20;1.00;;;;;;6195590;23;20556;-88
2024/01/10 05:33:29;;;;;;;60.20;31.98;;;-7.20;1.00;;;;;;6199596;23;20186;-87
2024/01/10 05:35:59;;;;;;;60.30;31.85;;;-7.30;1.00;;;;;;6196848;23;20186;-88
2024/01/10 05:38:25;;;;;;;54.63;31.15;;;-7.20;11.10;;;;;;6196201;23;20216;-87
2024/01/10 05:40:52;;;;;;;64.68;33.33;;;-7.20;14.60;;;;;;6194493;23;20184;-87
2024/01/10 05:43:22;;;;;;;62.83;33.10;;;-7.20;40.40;;;;;;6198372;23;20263;-87
2024/01/10 05:45:49;;;;;;;62.30;35.58;;;-7.20;41.20;;;;;;6199028;23;20194;-88
2024/01/10 05:48:17;;;;;;;64.45;33.25;;;-7.30;85.20;;;;;;6195472;23;20238;-88
2024/01/10 05:50:44;;;;;;;64.80;34.25;;;-7.30;95.20;;;;;;6208179;23;20216;-88
2024/01/10 05:53:16;;;;;;;70.30;34.55;;;-7.20;60.10;;;;;;6196782;23;20614;-88
2024/01/10 05:55:43;;;;;;;58.90;31.90;;;-7.10;13.50;;;;;;6195773;23;20484;-88
2024/01/10 05:58:11;;;;;;;73.10;35.65;;;-7.10;9.60;;;;;;6193584;23;20207;-89
2024/01/10 06:00:38;;;;;;;62.92;35.67;;;-7.00;1.00;;;;;;6193637;23;20187;-88
2024/01/10 06:03:05;;;;;;;66.20;34.28;;;-7.20;4.70;;;;;;6194509;23;20619;-88
2024/01/10 06:05:32;;;;;;;65.00;33.97;;;-7.10;11.90;;;;;;6194563;23;20172;-88
2024/01/10 06:07:59;;;;;;;67.80;32.03;;;-7.10;1.00;;;;;;6194396;23;20257;-88
2024/01/10 06:10:29;;;;;;;79.60;36.33;;;-7.20;1.70;;;;;;6197407;23;20192;-88
2024/01/10 06:12:56;;;;;;;77.93;34.78;;;-7.20;20.10;;;;;;6209613;23;20155;-87
2024/01/10 06:15:23;;;;;;;79.55;34.28;;;-7.20;18.70;;;;;;6199724;23;20180;-88
2024/01/10 06:17:50;;;;;;;71.22;36.03;;;-7.30;64.30;;;;;;6194772;23;20219;-89
2024/01/10 06:20:19;;;;;;;61.55;33.20;;;-7.10;80.30;;;;;;6194847;23;20212;-88
2024/01/10 06:22:47;;;;;;;68.72;35.70;;;-7.20;52.70;;;;;;6196309;23;20176;-86
2024/01/10 06:25:14;;;;;;;61.92;34.50;;;-7.10;9.70;;;;;;6210044;23;20164;-85
2024/01/10 06:27:42;;;;;;;72.60;39.13;;;-7.10;1.00;;;;;;6213759;23;20172;-86
2024/01/10 06:30:10;;;;;;;92.07;44.63;;;-7.10;1.00;;;;;;6213017;23;20206;-87
2024/01/10 06:32:37;;;;;;;71.43;39.67;;;-7.10;1.00;;;;;;6197297;23;20180;-87
2024/01/10 06:35:05;;;;;;;84.65;40.13;;;-7.30;1.00;;;;;;6205783;23;20172;-87
2024/01/10 06:37:32;;;;;;;68.45;36.55;;;-7.40;55.00;;;;;;6191550;23;20270;-87
2024/01/10 06:39:59;;;;;;;81.05;36.25;;;-7.30;99.90;;;;;;6192645;23;20207;-87
2024/01/10 06:42:27;;;;;;;73.20;35.95;;;-7.30;99.90;;;;;;6204507;23;20179;-87
2024/01/10 06:44:55;;;;;;;69.10;36.65;;;-7.30;99.90;;;;;;6206243;23;20180;-87
2024/01/10 06:47:22;;;;;;;71.65;36.53;;;-7.20;99.90;;;;;;6197280;23;20206;-88
2024/01/10 06:49:49;;;;;;;77.50;37.50;;;-7.20;88.00;;;;;;6195171;23;20191;-86
2024/01/10 06:52:16;;;;;;;71.22;35.58;;;-7.30;98.10;;;;;;6194585;23;20179;-87
2024/01/10 06:54:43;;;;;;;69.03;38.05;;;-7.20;99.90;;;;;;6193766;23;20254;-87
2024/01/10 06:57:10;;;;;;;78.60;36.50;;;-7.10;20.90;;;;;;6194020;23;20191;-86
2024/01/10 06:59:37;;;;;;;63.20;34.67;;;-7.10;1.00;;;;;;6194054;23;20176;-88
2024/01/10 07:02:05;;;;;;;71.07;37.75;;;-7.00;1.00;;;;;;6204456;23;20170;-89
2024/01/10 07:04:32;;;;;;;82.13;38.10;;;-7.00;1.00;;;;;;6212916;23;20159;-89
2024/01/10 07:06:59;;;;;;;70.82;33.15;;;-7.00;1.00;;;;;;6210149;23;20284;-88
2024/01/10 07:09:26;;;;;;;66.82;34.20;;;-7.10;1.00;;;;;;6205111;23;20203;-89
2024/01/10 07:11:53;;;;;;;78.32;36.47;;;-7.20;1.00;;;;;;6201401;23;20175;-88
2024/01/10 07:14:21;;;;;;;82.88;38.42;;;-7.30;11.10;;;;;;6199685;23;20183;-88
2024/01/10 07:16:48;;;;;;;70.22;35.35;;;-7.30;64.30;;;;;;6193746;23;20198;-87
2024/01/10 07:19:16;;;;;;;76.38;37.15;;;-7.20;47.00;;;;;;6192864;23;20191;-88
2024/01/10 07:21:44;;;;;;;71.43;36.35;;;-7.20;48.00;;;;;;6192600;23;20184;-87
2024/01/10 07:24:11;;;;;;;71.60;35.45;;;-7.20;99.90;;;;;;6191774;23;20179;-87
2024/01/10 07:26:38;;;;;;;82.95;37.45;;;-7.20;66.30;;;;;;6193235;23;20175;-87
2024/01/10 07:29:08;;;;;;;60.40;35.72;;;-7.30;99.90;;;;;;6197420;23;20191;-89
2024/01/10 07:31:35;;;;;;;70.90;33.60;;;-7.30;99.90;;;;;;6201472;23;20195;-88
2024/01/10 07:34:04;;;;;;;75.32;37.67;;;-7.30;99.90;;;;;;6194921;23;20234;-88
2024/01/10 07:36:33;;;;;;;70.15;35.42;;;-7.30;99.90;;;;;;6207128;23;20258;-88
2024/01/10 07:39:00;;;;;;;62.85;36.35;;;-7.20;99.90;;;;;;6199644;23;20191;-88
2024/01/10 07:41:27;;;;;;;67.00;37.05;;;-7.20;99.90;;;;;;6195921;23;20176;-88
2024/01/10 07:43:54;;;;;;;63.75;36.05;;;-7.20;99.90;;;;;;6205024;23;20203;-89
2024/01/10 07:46:22;;;;;;;62.60;36.72;;;-7.10;99.90;;;;;;6211648;23;20175;-88
2024/01/10 07:48:49;;;;;;;91.68;40.55;;;-7.20;99.90;;;;;;6198333;23;20234;-88
2024/01/10 07:51:28;;;;;;;;;;;;;;;;;;;;;
2024/01/10 07:53:59;;;;;;;77.55;37.95;;;-7.20;99.90;;;;;;6193443;23;20207;-88
2024/01/10 07:56:29;;;;;;;87.38;39.03;;;-7.00;99.90;;;;;;6196121;23;20184;-88
2024/01/10 07:58:57;;;;;;;72.13;37.25;;;-7.00;99.90;;;;;;6201526;23;20194;-88
2024/01/10 08:01:23;;;;;;;63.70;37.83;;;-7.00;99.90;;;;;;6214619;23;20171;-88
2024/01/10 08:03:50;;;;;;;74.72;38.00;;;-7.00;99.90;;;;;;6214940;23;20167;-86
2024/01/10 08:06:17;;;;;;;65.20;35.20;;;-6.90;99.90;;;;;;6212867;23;20215;-86
2024/01/10 08:08:44;;;;;;;64.18;36.35;;;-6.80;95.90;;;;;;6209327;23;20219;-86
2024/01/10 08:11:12;;;;;;;69.22;39.22;;;-6.70;14.70;;;;;;6203431;23;20259;-86
2024/01/10 08:13:40;;;;;;;68.55;35.47;;;-6.70;1.00;;;;;;6198963;23;20183;-85
2024/01/10 08:16:08;;;;;;;74.47;33.90;;;-6.70;1.00;;;;;;6204169;23;20179;-86
2024/01/10 08:18:34;;;;;;;73.93;38.38;;;-6.70;1.00;;;;;;6204244;23;20195;-85
2024/01/10 08:21:01;;;;;;;92.22;36.63;;;-6.70;1.00;;;;;;6215102;23;20228;-84
2024/01/10 08:23:28;;;;;;;62.53;35.13;;;-6.70;1.00;;;;;;6215267;23;20169;-84
2024/01/10 08:25:55;;;;;;;68.78;38.60;;;-6.70;1.00;;;;;;6215128;23;20160;-84
2024/01/10 08:28:26;;;;;;;80.43;39.03;;;-6.80;1.00;;;;;;6212071;23;20222;-84
2024/01/10 08:30:52;;;;;;;83.25;38.33;;;-6.80;1.00;;;;;;6214075;23;20227;-86
2024/01/10 08:33:19;;;;;;;67.25;33.72;;;-6.80;1.00;;;;;;6213779;23;20204;-85
2024/01/10 08:35:46;;;;;;;68.75;36.28;;;-6.80;6.30;;;;;;6208515;23;20172;-86
2024/01/10 08:38:13;;;;;;;74.07;35.28;;;-6.70;1.00;;;;;;6196484;23;20191;-86
2024/01/10 08:40:40;;;;;;;72.28;36.05;;;-6.70;1.00;;;;;;6196999;23;20182;-87
2024/01/10 08:43:07;;;;;;;78.53;37.85;;;-6.60;1.00;;;;;;6195718;23;20176;-87
2024/01/10 08:45:35;;;;;;;68.85;38.33;;;-6.60;1.00;;;;;;6195198;23;20199;-87
2024/01/10 08:48:02;;;;;;;78.00;38.92;;;-6.60;1.00;;;;;;6194566;23;20287;-87
2024/01/10 08:50:29;;;;;;;63.22;34.03;;;-6.50;1.00;;;;;;6194417;23;20250;-87
2024/01/10 08:52:56;;;;;;;73.85;37.10;;;-6.40;1.00;;;;;;6196381;23;20180;-87
2024/01/10 08:55:23;;;;;;;79.50;37.83;;;-6.50;1.00;;;;;;6198422;23;20530;-87
2024/01/10 08:57:50;;;;;;;67.57;36.25;;;-6.50;1.00;;;;;;6197601;23;20215;-87
2024/01/10 09:00:17;;;;;;;66.15;36.05;;;-6.50;1.00;;;;;;6204173;23;20696;-87
2024/01/10 09:02:45;;;;;;;62.63;34.90;;;-6.40;1.00;;;;;;6207842;23;20175;-87
2024/01/10 09:05:12;;;;;;;70.43;37.20;;;-6.40;1.00;;;;;;6196887;23;20235;-87
2024/01/10 09:07:39;;;;;;;62.03;35.10;;;-6.30;1.00;;;;;;6198548;23;20204;-86
2024/01/10 09:10:08;;;;;;;75.82;36.85;;;-6.40;1.00;;;;;;6198300;23;20279;-86
2024/01/10 09:12:35;;;;;;;77.13;37.95;;;-6.30;1.00;;;;;;6199870;23;20187;-86
2024/01/10 09:15:02;;;;;;;82.22;39.35;;;-6.30;1.00;;;;;;6212648;23;20176;-86
2024/01/10 09:17:29;;;;;;;74.57;36.25;;;-6.20;1.00;;;;;;6204050;23;20204;-86
2024/01/10 09:19:57;;;;;;;74.90;37.03;;;-6.10;1.00;;;;;;6206314;23;20176;-86
2024/01/10 09:22:24;;;;;;;79.65;36.53;;;-6.10;1.00;;;;;;6205057;23;20187;-87
2024/01/10 09:24:51;;;;;;;66.60;35.17;;;-6.00;1.00;;;;;;6203274;23;20187;-87
2024/01/10 09:27:18;;;;;;;84.25;40.42;;;-5.90;1.00;;;;;;6204528;23;20530;-88
2024/01/10 09:29:45;;;;;;;72.20;35.67;;;-5.80;1.00;;;;;;6203579;23;20212;-87
2024/01/10 09:32:12;;;;;;;76.68;37.20;;;-5.80;1.00;;;;;;6199028;23;20664;-87
2024/01/10 09:34:39;;;;;;;70.80;36.20;;;-5.70;1.00;;;;;;6199348;23;20179;-87
2024/01/10 09:37:07;;;;;;;69.70;34.33;;;-5.70;1.00;;;;;;6197672;23;20180;-87
2024/01/10 09:39:34;;;;;;;66.75;33.58;;;-5.50;1.00;;;;;;6197375;23;20171;-87
2024/01/10 09:42:02;;;;;;;78.38;35.92;;;-5.40;1.00;;;;;;6197882;23;20673;-87
2024/01/10 09:44:30;;;;;;;81.13;38.38;;;-5.30;1.00;;;;;;6206368;23;20207;-87
2024/01/10 09:46:57;;;;;;;70.07;35.20;;;-5.30;1.00;;;;;;6199351;23;20179;-87
2024/01/10 09:49:25;;;;;;;66.60;38.15;;;-5.30;1.00;;;;;;6202826;23;20518;-87
2024/01/10 09:51:54;;;;;;;64.32;37.05;;;-5.20;1.00;;;;;;6212205;23;20271;-87
2024/01/10 09:54:25;;;;;;;63.30;34.17;;;-5.10;1.00;;;;;;6201218;23;20206;-87
2024/01/10 09:56:53;;;;;;;65.82;36.13;;;-5.10;1.00;;;;;;6197639;23;20171;-87
2024/01/10 09:59:20;;;;;;;61.22;32.65;;;-5.00;1.00;;;;;;6196103;23;20200;-87
2024/01/10 10:01:46;;;;;;;64.78;33.70;;;-5.00;99.90;;;;;;6196503;23;20176;-87
2024/01/10 10:04:15;;;;;;;60.65;32.05;;;-4.90;99.90;;;;;;6194469;23;20515;-87
2024/01/10 10:06:42;;;;;;;67.15;32.28;;;-4.80;99.90;;;;;;6195823;23;20232;-87
2024/01/10 10:09:09;;;;;;;55.90;30.95;;;-4.80;99.90;;;;;;6209994;23;20207;-85
2024/01/10 10:11:38;;;;;;;61.22;32.13;;;-4.70;99.90;;;;;;6213314;23;20235;-85
2024/01/10 10:14:19;;;;;;;66.43;33.15;;;-4.60;99.90;;;;;;6202261;23;20179;-86
2024/01/10 10:16:46;;;;;;;62.35;31.15;;;-4.60;99.90;;;;;;6193820;23;20214;-86
2024/01/10 10:19:13;;;;;;;54.85;30.80;;;-4.50;99.90;;;;;;6194372;23;20223;-86
2024/01/10 10:21:40;;;;;;;56.65;30.20;;;-4.40;99.90;;;;;;6195138;23;20264;-86
2024/01/10 10:24:09;;;;;;;66.82;33.33;;;-4.40;99.90;;;;;;6196992;23;20187;-86
2024/01/10 10:26:38;;;;;;;52.38;28.73;;;-4.30;99.90;;;;;;6207984;23;20168;-86
2024/01/10 10:29:05;;;;;;;55.63;29.80;;;-4.30;99.90;;;;;;6207141;23;20696;-86
2024/01/10 10:31:32;;;;;;;67.97;36.75;;;-4.30;99.90;;;;;;6195020;23;20229;-86
2024/01/10 10:34:02;;;;;;;57.38;32.55;;;-4.20;99.90;;;;;;6193119;23;20238;-87
2024/01/10 10:36:31;;;;;;;63.15;31.08;;;-4.10;99.90;;;;;;6196135;23;20559;-86
2024/01/10 10:39:02;;;;;;;58.92;30.80;;;-4.10;99.90;;;;;;6195623;23;20220;-86
2024/01/10 10:41:32;;;;;;;61.38;32.08;;;-4.00;99.90;;;;;;6197205;23;20156;-86
2024/01/10 10:44:01;;;;;;;51.70;28.73;;;-4.00;99.90;;;;;;6203019;23;20174;-86
2024/01/10 10:46:28;;;;;;;62.80;29.33;;;-3.90;99.90;;;;;;6212049;23;20175;-87
2024/01/10 10:49:00;;;;;;;63.38;29.95;;;-3.90;99.90;;;;;;6203307;23;20207;-86
2024/01/10 10:51:33;;;;;;;59.85;31.20;;;-3.90;99.90;;;;;;6196963;23;20207;-86
2024/01/10 10:54:00;;;;;;;53.58;30.50;;;-3.90;99.90;;;;;;6196270;23;20557;-87
2024/01/10 10:56:30;;;;;;;65.15;29.40;;;-3.90;99.90;;;;;;6194975;23;20216;-86
2024/01/10 10:59:01;;;;;;;61.58;31.45;;;-3.80;99.90;;;;;;6195890;23;20192;-87
2024/01/10 11:01:28;;;;;;;58.67;30.33;;;-3.80;99.90;;;;;;6194111;23;20556;-88
2024/01/10 11:03:57;;;;;;;58.05;31.13;;;-3.80;99.90;;;;;;6194538;23;20172;-87
2024/01/10 11:06:24;;;;;;;57.33;32.33;;;-3.70;99.90;;;;;;6194287;23;20184;-86
2024/01/10 11:08:54;;;;;;;53.75;29.77;;;-3.70;99.90;;;;;;6195293;23;20204;-87
2024/01/10 11:11:36;;;;;;;65.40;34.60;;;-3.70;99.90;;;;;;6195921;23;20186;-87
2024/01/10 11:14:19;;;;;;;55.15;29.70;;;-3.60;99.90;;;;;;6196662;23;20195;-86
2024/01/10 11:17:14;;;;;;;55.13;29.85;;;-3.50;99.90;;;;;;6198183;23;20190;-86
2024/01/10 11:20:14;;;;;;;55.88;30.65;;;-3.50;99.90;;;;;;6211447;23;20160;-86
2024/01/10 11:23:04;;;;;;;47.40;28.55;;;-3.40;99.90;;;;;;6211724;23;20148;-86
2024/01/10 11:25:32;;;;;;;42.70;27.50;;;-3.30;99.90;;;;;;6189569;23;20182;-87
2024/01/10 11:28:03;;;;;;;53.20;27.88;;;-3.30;99.90;;;;;;6193706;23;20199;-86
2024/01/10 11:30:38;;;;;;;46.15;28.67;;;-3.20;99.90;;;;;;6193655;23;20261;-87
2024/01/10 11:33:20;;;;;;;47.67;25.45;;;-3.10;99.90;;;;;;6195170;23;20219;-87
2024/01/10 11:36:09;;;;;;;45.47;27.60;;;-3.10;99.90;;;;;;6195341;23;20199;-87
2024/01/10 11:38:41;;;;;;;58.25;28.45;;;-3.10;99.90;;;;;;6194782;23;20231;-87
2024/01/10 11:41:08;;;;;;;48.20;27.80;;;-3.00;99.90;;;;;;6206619;23;20203;-86
2024/01/10 11:43:35;;;;;;;57.50;29.60;;;-3.00;99.90;;;;;;6213530;23;20167;-85
2024/01/10 11:46:05;;;;;;;53.47;28.60;;;-3.00;99.90;;;;;;6213609;23;20164;-85
2024/01/10 11:48:33;;;;;;;56.78;30.75;;;-2.90;99.90;;;;;;6209943;23;20203;-86
2024/01/10 11:51:01;;;;;;;47.55;28.00;;;-2.90;99.90;;;;;;6211708;23;20188;-85
2024/01/10 11:53:46;;;;;;;52.08;27.85;;;-2.80;99.90;;;;;;6212864;23;20290;-87
2024/01/10 11:56:15;;;;;;;49.33;27.92;;;-2.80;99.90;;;;;;6203693;23;20219;-87
2024/01/10 11:59:04;;;;;;;53.88;28.17;;;-2.80;99.90;;;;;;6194832;23;20200;-87
2024/01/10 12:01:34;;;;;;;41.55;24.58;;;-2.70;99.90;;;;;;6194115;23;20578;-88
2024/01/10 12:04:01;;;;;;;53.47;27.02;;;-2.70;99.90;;;;;;6193160;23;20183;-88
2024/01/10 12:06:28;;;;;;;46.83;27.67;;;-2.60;99.90;;;;;;6193453;23;20179;-88
2024/01/10 12:08:55;;;;;;;48.88;26.35;;;-2.60;99.90;;;;;;6194306;23;20200;-87
2024/01/10 12:11:22;;;;;;;44.00;25.45;;;-2.50;99.90;;;;;;6193582;23;20188;-87
2024/01/10 12:13:49;;;;;;;47.40;25.65;;;-2.50;99.90;;;;;;6198673;23;20207;-87
2024/01/10 12:16:17;;;;;;;49.22;24.48;;;-2.50;99.90;;;;;;6200969;23;20179;-87
2024/01/10 12:18:45;;;;;;;50.10;25.80;;;-2.50;99.90;;;;;;6195099;23;20254;-87
2024/01/10 12:21:13;;;;;;;39.55;22.23;;;-2.40;99.90;;;;;;6194987;23;20256;-87
2024/01/10 12:23:41;;;;;;;47.05;21.55;;;-2.40;99.90;;;;;;6196381;23;20180;-87
2024/01/10 12:26:12;;;;;;;37.60;22.13;;;-2.30;99.90;;;;;;6195666;23;20180;-87
2024/01/10 12:28:39;;;;;;;38.92;22.20;;;-2.30;99.90;;;;;;6196118;23;20219;-87
2024/01/10 12:31:08;;;;;;;35.67;21.20;;;-2.30;99.90;;;;;;6195270;23;20196;-87
2024/01/10 12:33:35;;;;;;;38.10;22.83;;;-2.30;99.90;;;;;;6195939;23;20228;-87
2024/01/10 12:36:10;;;;;;;31.33;20.88;;;-2.30;99.90;;;;;;6195913;23;20180;-87
2024/01/10 12:38:39;;;;;;;37.75;22.60;;;-2.30;99.90;;;;;;6195946;23;20203;-87